sensor_id;sensor_type;location;lat;lon;timestamp;pressure;altitude;pressure_sealevel;temperature;humidity
69411;BME280;56604;48.652;9.194;2023-06-26T00:01:14;96223.03;;;21.52;47.77
69411;BME280;56604;48.652;9.194;2023-06-26T00:03:40;96226.19;;;21.54;47.58
69411;BME280;56604;48.652;9.194;2023-06-26T00:06:05;96228.88;;;21.46;47.85
69411;BME280;56604;48.652;9.194;2023-06-26T00:08:30;96223.53;;;21.46;47.69
69411;BME280;56604;48.652;9.194;2023-06-26T00:10:56;96231.75;;;21.41;47.85
69411;BME280;56604;48.652;9.194;2023-06-26T00:13:23;96228.91;;;21.37;48.03
69411;BME280;56604;48.652;9.194;2023-06-26T00:15:49;96228.25;;;21.31;48.36
69411;BME280;56604;48.652;9.194;2023-06-26T00:18:15;96229.38;;;21.22;48.90
69411;BME280;56604;48.652;9.194;2023-06-26T00:20:40;96232.22;;;21.17;49.36
69411;BME280;56604;48.652;9.194;2023-06-26T00:23:05;96230.94;;;21.14;49.41
69411;BME280;56604;48.652;9.194;2023-06-26T00:25:33;96238.53;;;21.03;49.61
69411;BME280;56604;48.652;9.194;2023-06-26T00:27:58;96232.06;;;21.04;49.52
69411;BME280;56604;48.652;9.194;2023-06-26T00:30:24;96231.94;;;20.92;50.03
69411;BME280;56604;48.652;9.194;2023-06-26T00:32:49;96232.72;;;20.93;49.83
69411;BME280;56604;48.652;9.194;2023-06-26T00:35:15;96234.75;;;20.96;49.99
69411;BME280;56604;48.652;9.194;2023-06-26T00:37:41;96236.19;;;20.93;49.89
69411;BME280;56604;48.652;9.194;2023-06-26T00:40:06;96242.44;;;20.88;49.97
69411;BME280;56604;48.652;9.194;2023-06-26T00:42:32;96224.06;;;20.87;49.77
69411;BME280;56604;48.652;9.194;2023-06-26T00:44:57;96220.78;;;20.90;49.63
69411;BME280;56604;48.652;9.194;2023-06-26T00:47:23;96222.81;;;20.93;49.44
69411;BME280;56604;48.652;9.194;2023-06-26T00:49:49;96221.88;;;20.89;50.28
69411;BME280;56604;48.652;9.194;2023-06-26T00:52:15;96219.03;;;20.94;49.83
69411;BME280;56604;48.652;9.194;2023-06-26T00:54:42;96217.13;;;20.86;49.93
69411;BME280;56604;48.652;9.194;2023-06-26T00:57:07;96222.81;;;20.84;49.61
69411;BME280;56604;48.652;9.194;2023-06-26T00:59:34;96220.28;;;20.88;49.84
69411;BME280;56604;48.652;9.194;2023-06-26T01:02:00;96223.75;;;20.80;50.01
69411;BME280;56604;48.652;9.194;2023-06-26T01:04:26;96224.22;;;20.99;49.71
69411;BME280;56604;48.652;9.194;2023-06-26T01:06:52;96214.94;;;20.88;49.54
69411;BME280;56604;48.652;9.194;2023-06-26T01:09:19;96218.88;;;20.91;49.82
69411;BME280;56604;48.652;9.194;2023-06-26T01:11:45;96211.97;;;20.98;49.73
69411;BME280;56604;48.652;9.194;2023-06-26T01:14:11;96214.31;;;20.91;49.60
69411;BME280;56604;48.652;9.194;2023-06-26T01:16:38;96211.00;;;20.94;49.73
69411;BME280;56604;48.652;9.194;2023-06-26T01:19:09;96212.91;;;20.85;49.35
69411;BME280;56604;48.652;9.194;2023-06-26T01:21:41;96212.75;;;20.81;49.57
69411;BME280;56604;48.652;9.194;2023-06-26T01:24:16;96213.69;;;20.77;49.81
69411;BME280;56604;48.652;9.194;2023-06-26T01:26:48;96207.56;;;20.76;49.52
69411;BME280;56604;48.652;9.194;2023-06-26T01:29:15;96209.59;;;20.79;49.41
69411;BME280;56604;48.652;9.194;2023-06-26T01:31:42;96207.56;;;20.85;49.06
69411;BME280;56604;48.652;9.194;2023-06-26T01:34:07;96204.59;;;20.78;49.00
69411;BME280;56604;48.652;9.194;2023-06-26T01:36:33;96203.78;;;20.77;49.05
69411;BME280;56604;48.652;9.194;2023-06-26T01:38:58;96199.69;;;20.80;49.47
69411;BME280;56604;48.652;9.194;2023-06-26T01:41:24;96197.66;;;20.77;49.15
69411;BME280;56604;48.652;9.194;2023-06-26T01:44:11;96200.66;;;20.66;49.89
69411;BME280;56604;48.652;9.194;2023-06-26T01:46:45;96191.41;;;20.55;50.08
69411;BME280;56604;48.652;9.194;2023-06-26T01:49:30;96192.63;;;20.49;50.48
69411;BME280;56604;48.652;9.194;2023-06-26T01:52:49;96191.03;;;20.48;50.57
69411;BME280;56604;48.652;9.194;2023-06-26T01:55:12;96189.47;;;20.47;50.64
69411;BME280;56604;48.652;9.194;2023-06-26T01:57:41;96189.75;;;20.37;50.88
69411;BME280;56604;48.652;9.194;2023-06-26T02:00:08;96188.22;;;20.36;50.60
69411;BME280;56604;48.652;9.194;2023-06-26T02:02:35;96187.88;;;20.46;50.58
69411;BME280;56604;48.652;9.194;2023-06-26T02:05:01;96190.41;;;20.42;50.88
69411;BME280;56604;48.652;9.194;2023-06-26T02:07:26;96186.00;;;20.38;50.72
69411;BME280;56604;48.652;9.194;2023-06-26T02:09:51;96185.22;;;20.37;51.11
69411;BME280;56604;48.652;9.194;2023-06-26T02:12:17;96176.41;;;20.37;50.93
69411;BME280;56604;48.652;9.194;2023-06-26T02:14:42;96183.81;;;20.49;50.93
69411;BME280;56604;48.652;9.194;2023-06-26T02:17:08;96183.97;;;20.43;50.60
69411;BME280;56604;48.652;9.194;2023-06-26T02:19:34;96183.50;;;20.41;51.24
69411;BME280;56604;48.652;9.194;2023-06-26T02:21:59;96188.69;;;20.38;52.00
69411;BME280;56604;48.652;9.194;2023-06-26T02:24:24;96187.25;;;20.32;52.21
69411;BME280;56604;48.652;9.194;2023-06-26T02:26:50;96184.13;;;20.30;52.14
69411;BME280;56604;48.652;9.194;2023-06-26T02:29:15;96191.16;;;20.26;52.14
69411;BME280;56604;48.652;9.194;2023-06-26T02:31:41;96193.38;;;20.24;52.08
69411;BME280;56604;48.652;9.194;2023-06-26T02:34:06;96185.50;;;20.18;51.95
69411;BME280;56604;48.652;9.194;2023-06-26T02:36:31;96185.69;;;20.31;51.81
69411;BME280;56604;48.652;9.194;2023-06-26T02:38:57;96187.56;;;20.21;52.14
69411;BME280;56604;48.652;9.194;2023-06-26T02:41:22;96183.16;;;20.26;52.49
69411;BME280;56604;48.652;9.194;2023-06-26T02:43:47;96189.13;;;20.22;52.00
69411;BME280;56604;48.652;9.194;2023-06-26T02:46:12;96188.94;;;20.10;52.57
69411;BME280;56604;48.652;9.194;2023-06-26T02:48:38;96186.75;;;20.12;52.47
69411;BME280;56604;48.652;9.194;2023-06-26T02:51:03;96191.00;;;20.13;52.53
69411;BME280;56604;48.652;9.194;2023-06-26T02:53:28;96183.16;;;20.17;53.12
69411;BME280;56604;48.652;9.194;2023-06-26T02:55:54;96187.97;;;20.06;53.06
69411;BME280;56604;48.652;9.194;2023-06-26T02:58:19;96192.25;;;20.07;52.85
69411;BME280;56604;48.652;9.194;2023-06-26T03:00:46;96192.09;;;20.12;53.57
69411;BME280;56604;48.652;9.194;2023-06-26T03:03:12;96192.09;;;20.04;53.36
69411;BME280;56604;48.652;9.194;2023-06-26T03:05:38;96191.13;;;19.99;53.27
69411;BME280;56604;48.652;9.194;2023-06-26T03:08:03;96194.72;;;19.95;53.42
69411;BME280;56604;48.652;9.194;2023-06-26T03:10:28;96187.53;;;20.04;53.81
69411;BME280;56604;48.652;9.194;2023-06-26T03:12:54;96192.88;;;20.04;53.73
69411;BME280;56604;48.652;9.194;2023-06-26T03:15:19;96190.81;;;20.01;53.94
69411;BME280;56604;48.652;9.194;2023-06-26T03:17:45;96184.50;;;19.97;54.60
69411;BME280;56604;48.652;9.194;2023-06-26T03:20:10;96188.16;;;20.01;53.91
69411;BME280;56604;48.652;9.194;2023-06-26T03:22:36;96185.75;;;19.91;54.62
69411;BME280;56604;48.652;9.194;2023-06-26T03:25:02;96182.31;;;19.90;54.18
69411;BME280;56604;48.652;9.194;2023-06-26T03:27:28;96190.00;;;20.00;53.94
69411;BME280;56604;48.652;9.194;2023-06-26T03:29:53;96187.69;;;20.16;54.15
69411;BME280;56604;48.652;9.194;2023-06-26T03:32:18;96189.75;;;20.37;54.17
69411;BME280;56604;48.652;9.194;2023-06-26T03:34:43;96188.50;;;20.26;54.40
69411;BME280;56604;48.652;9.194;2023-06-26T03:37:09;96188.50;;;20.26;54.86
69411;BME280;56604;48.652;9.194;2023-06-26T03:39:34;96186.00;;;20.38;53.89
69411;BME280;56604;48.652;9.194;2023-06-26T03:42:00;96187.13;;;20.54;53.45
69411;BME280;56604;48.652;9.194;2023-06-26T03:44:26;96193.41;;;20.50;53.61
69411;BME280;56604;48.652;9.194;2023-06-26T03:46:52;96196.09;;;20.58;54.03
69411;BME280;56604;48.652;9.194;2023-06-26T03:49:17;96192.47;;;20.89;52.99
69411;BME280;56604;48.652;9.194;2023-06-26T03:51:43;96194.78;;;21.17;52.36
69411;BME280;56604;48.652;9.194;2023-06-26T03:54:09;96199.00;;;21.44;51.32
69411;BME280;56604;48.652;9.194;2023-06-26T03:56:34;96188.75;;;21.54;51.15
69411;BME280;56604;48.652;9.194;2023-06-26T03:58:59;96190.00;;;21.87;50.68
69411;BME280;56604;48.652;9.194;2023-06-26T04:01:25;96191.63;;;22.09;50.10
69411;BME280;56604;48.652;9.194;2023-06-26T04:03:50;96196.75;;;22.22;49.12
69411;BME280;56604;48.652;9.194;2023-06-26T04:06:16;96194.69;;;22.49;48.93
69411;BME280;56604;48.652;9.194;2023-06-26T04:08:41;96191.41;;;22.85;48.00
69411;BME280;56604;48.652;9.194;2023-06-26T04:11:06;96195.19;;;23.05;47.23
69411;BME280;56604;48.652;9.194;2023-06-26T04:13:32;96195.13;;;23.26;46.02
69411;BME280;56604;48.652;9.194;2023-06-26T04:15:57;96196.16;;;23.34;46.60
69411;BME280;56604;48.652;9.194;2023-06-26T04:18:22;96197.69;;;23.93;45.67
69411;BME280;56604;48.652;9.194;2023-06-26T04:21:06;96190.97;;;24.23;44.48
69411;BME280;56604;48.652;9.194;2023-06-26T04:23:32;96203.50;;;24.44;43.95
69411;BME280;56604;48.652;9.194;2023-06-26T04:25:57;96202.47;;;24.89;43.20
69411;BME280;56604;48.652;9.194;2023-06-26T04:28:23;96202.47;;;24.89;43.19
69411;BME280;56604;48.652;9.194;2023-06-26T04:30:49;96198.91;;;25.73;41.26
69411;BME280;56604;48.652;9.194;2023-06-26T04:33:14;96205.66;;;25.67;41.81
69411;BME280;56604;48.652;9.194;2023-06-26T04:35:40;96203.41;;;26.16;40.68
69411;BME280;56604;48.652;9.194;2023-06-26T04:38:05;96198.75;;;26.87;39.31
69411;BME280;56604;48.652;9.194;2023-06-26T04:40:31;96199.53;;;27.27;38.73
69411;BME280;56604;48.652;9.194;2023-06-26T04:42:56;96202.22;;;27.07;38.34
69411;BME280;56604;48.652;9.194;2023-06-26T04:45:21;96203.56;;;26.98;39.14
69411;BME280;56604;48.652;9.194;2023-06-26T04:47:47;96199.53;;;27.50;38.33
69411;BME280;56604;48.652;9.194;2023-06-26T04:50:12;96206.53;;;27.77;37.71
69411;BME280;56604;48.652;9.194;2023-06-26T04:52:37;96202.28;;;27.76;37.75
69411;BME280;56604;48.652;9.194;2023-06-26T04:55:03;96201.31;;;27.85;37.14
69411;BME280;56604;48.652;9.194;2023-06-26T04:57:28;96200.31;;;28.80;35.60
69411;BME280;56604;48.652;9.194;2023-06-26T04:59:53;96206.44;;;28.20;36.40
69411;BME280;56604;48.652;9.194;2023-06-26T05:02:19;96196.22;;;28.33;36.61
69411;BME280;56604;48.652;9.194;2023-06-26T05:04:44;96201.31;;;28.98;35.04
69411;BME280;56604;48.652;9.194;2023-06-26T05:07:11;96191.53;;;30.13;33.58
69411;BME280;56604;48.652;9.194;2023-06-26T05:09:36;96191.31;;;30.32;33.18
69411;BME280;56604;48.652;9.194;2023-06-26T05:12:02;96196.72;;;31.16;32.06
69411;BME280;56604;48.652;9.194;2023-06-26T05:14:27;96189.00;;;31.29;31.43
69411;BME280;56604;48.652;9.194;2023-06-26T05:16:53;96195.25;;;31.36;31.56
69411;BME280;56604;48.652;9.194;2023-06-26T05:19:18;96197.56;;;32.42;30.09
69411;BME280;56604;48.652;9.194;2023-06-26T05:21:44;96196.84;;;31.80;31.07
69411;BME280;56604;48.652;9.194;2023-06-26T05:24:12;96201.09;;;32.21;30.46
69411;BME280;56604;48.652;9.194;2023-06-26T05:26:39;96203.41;;;32.37;29.90
69411;BME280;56604;48.652;9.194;2023-06-26T05:29:05;96200.28;;;32.56;30.02
69411;BME280;56604;48.652;9.194;2023-06-26T05:31:32;96204.50;;;32.72;29.75
69411;BME280;56604;48.652;9.194;2023-06-26T05:34:00;96205.59;;;32.88;29.62
69411;BME280;56604;48.652;9.194;2023-06-26T05:36:28;96204.63;;;33.31;28.99
69411;BME280;56604;48.652;9.194;2023-06-26T05:38:54;96207.22;;;33.52;28.67
69411;BME280;56604;48.652;9.194;2023-06-26T05:41:21;96210.09;;;33.24;29.19
69411;BME280;56604;48.652;9.194;2023-06-26T05:43:47;96212.97;;;33.02;29.01
69411;BME280;56604;48.652;9.194;2023-06-26T05:46:12;96209.50;;;33.65;28.50
69411;BME280;56604;48.652;9.194;2023-06-26T05:48:38;96212.88;;;33.79;28.29
69411;BME280;56604;48.652;9.194;2023-06-26T05:51:03;96213.53;;;34.39;27.50
69411;BME280;56604;48.652;9.194;2023-06-26T05:53:29;96216.22;;;34.05;27.72
69411;BME280;56604;48.652;9.194;2023-06-26T05:55:55;96213.50;;;34.43;27.38
69411;BME280;56604;48.652;9.194;2023-06-26T05:58:21;96213.63;;;35.01;26.25
69411;BME280;56604;48.652;9.194;2023-06-26T06:00:48;96219.81;;;34.74;26.33
69411;BME280;56604;48.652;9.194;2023-06-26T06:03:14;96213.91;;;34.41;26.72
69411;BME280;56604;48.652;9.194;2023-06-26T06:05:39;96214.50;;;34.94;27.03
69411;BME280;56604;48.652;9.194;2023-06-26T06:08:04;96208.69;;;33.68;27.84
69411;BME280;56604;48.652;9.194;2023-06-26T06:10:30;96212.53;;;34.64;26.80
69411;BME280;56604;48.652;9.194;2023-06-26T06:12:55;96207.03;;;34.67;26.71
69411;BME280;56604;48.652;9.194;2023-06-26T06:15:20;96213.31;;;33.04;28.28
69411;BME280;56604;48.652;9.194;2023-06-26T06:17:46;96211.66;;;33.88;28.31
69411;BME280;56604;48.652;9.194;2023-06-26T06:20:11;96215.72;;;34.59;27.42
69411;BME280;56604;48.652;9.194;2023-06-26T06:22:37;96209.72;;;35.05;27.00
69411;BME280;56604;48.652;9.194;2023-06-26T06:25:02;96213.09;;;34.82;26.88
69411;BME280;56604;48.652;9.194;2023-06-26T06:27:27;96226.25;;;34.57;26.43
69411;BME280;56604;48.652;9.194;2023-06-26T06:29:53;96206.25;;;35.59;26.16
69411;BME280;56604;48.652;9.194;2023-06-26T06:32:18;96214.47;;;35.83;24.88
69411;BME280;56604;48.652;9.194;2023-06-26T06:34:44;96215.72;;;36.01;25.47
69411;BME280;56604;48.652;9.194;2023-06-26T06:37:09;96204.97;;;36.14;25.05
69411;BME280;56604;48.652;9.194;2023-06-26T06:39:34;96218.06;;;36.27;25.22
69411;BME280;56604;48.652;9.194;2023-06-26T06:42:00;96210.59;;;36.07;25.66
69411;BME280;56604;48.652;9.194;2023-06-26T06:44:25;96214.84;;;35.85;25.73
69411;BME280;56604;48.652;9.194;2023-06-26T06:46:50;96207.09;;;37.46;24.25
69411;BME280;56604;48.652;9.194;2023-06-26T06:49:16;96216.38;;;36.56;24.58
69411;BME280;56604;48.652;9.194;2023-06-26T06:51:41;96218.75;;;36.54;24.90
69411;BME280;56604;48.652;9.194;2023-06-26T06:54:06;96218.19;;;37.39;23.90
69411;BME280;56604;48.652;9.194;2023-06-26T06:56:31;96212.72;;;36.63;24.60
69411;BME280;56604;48.652;9.194;2023-06-26T06:58:57;96220.75;;;36.50;25.29
69411;BME280;56604;48.652;9.194;2023-06-26T07:01:22;96222.78;;;37.46;24.31
69411;BME280;56604;48.652;9.194;2023-06-26T07:03:47;96216.56;;;37.78;23.63
69411;BME280;56604;48.652;9.194;2023-06-26T07:06:13;96222.97;;;36.59;24.80
69411;BME280;56604;48.652;9.194;2023-06-26T07:08:38;96220.16;;;36.19;26.26
69411;BME280;56604;48.652;9.194;2023-06-26T07:11:04;96216.00;;;37.14;24.55
69411;BME280;56604;48.652;9.194;2023-06-26T07:13:29;96212.56;;;37.46;23.48
69411;BME280;56604;48.652;9.194;2023-06-26T07:15:54;96221.22;;;37.08;24.36
69411;BME280;56604;48.652;9.194;2023-06-26T07:18:20;96216.09;;;36.90;24.84
69411;BME280;56604;48.652;9.194;2023-06-26T07:20:45;96219.66;;;38.13;23.51
69411;BME280;56604;48.652;9.194;2023-06-26T07:23:10;96218.84;;;37.79;24.03
69411;BME280;56604;48.652;9.194;2023-06-26T07:25:36;96219.47;;;38.20;23.86
69411;BME280;56604;48.652;9.194;2023-06-26T07:28:01;96224.22;;;36.94;24.81
69411;BME280;56604;48.652;9.194;2023-06-26T07:30:27;96221.19;;;37.81;24.40
69411;BME280;56604;48.652;9.194;2023-06-26T07:32:52;96222.56;;;37.89;24.01
69411;BME280;56604;48.652;9.194;2023-06-26T07:35:18;96226.38;;;37.06;25.73
69411;BME280;56604;48.652;9.194;2023-06-26T07:37:43;96218.91;;;36.23;25.93
69411;BME280;56604;48.652;9.194;2023-06-26T07:40:09;96226.31;;;37.79;24.20
69411;BME280;56604;48.652;9.194;2023-06-26T07:42:35;96224.78;;;38.27;24.32
69411;BME280;56604;48.652;9.194;2023-06-26T07:45:00;96226.41;;;38.41;23.89
69411;BME280;56604;48.652;9.194;2023-06-26T07:47:26;96240.47;;;38.88;23.04
69411;BME280;56604;48.652;9.194;2023-06-26T07:49:51;96241.69;;;39.13;22.86
69411;BME280;56604;48.652;9.194;2023-06-26T07:52:19;96230.72;;;38.71;23.15
69411;BME280;56604;48.652;9.194;2023-06-26T07:54:44;96223.94;;;38.59;23.20
69411;BME280;56604;48.652;9.194;2023-06-26T07:57:09;96228.31;;;37.42;23.89
69411;BME280;56604;48.652;9.194;2023-06-26T07:59:36;96226.16;;;37.70;24.28
69411;BME280;56604;48.652;9.194;2023-06-26T08:02:02;96229.59;;;38.23;22.97
69411;BME280;56604;48.652;9.194;2023-06-26T08:04:28;96238.22;;;39.25;23.29
69411;BME280;56604;48.652;9.194;2023-06-26T08:07:00;96232.13;;;39.05;22.28
69411;BME280;56604;48.652;9.194;2023-06-26T08:09:27;96235.28;;;38.61;23.48
69411;BME280;56604;48.652;9.194;2023-06-26T08:11:54;96225.97;;;37.77;23.86
69411;BME280;56604;48.652;9.194;2023-06-26T08:14:19;96216.31;;;38.05;23.19
69411;BME280;56604;48.652;9.194;2023-06-26T08:16:46;96223.22;;;37.77;23.58
69411;BME280;56604;48.652;9.194;2023-06-26T08:19:13;96217.31;;;37.62;23.53
69411;BME280;56604;48.652;9.194;2023-06-26T08:21:41;96219.63;;;38.45;23.84
69411;BME280;56604;48.652;9.194;2023-06-26T08:24:07;96223.56;;;39.03;22.49
69411;BME280;56604;48.652;9.194;2023-06-26T08:26:33;96218.03;;;38.61;23.52
69411;BME280;56604;48.652;9.194;2023-06-26T08:28:58;96214.66;;;37.58;24.33
69411;BME280;56604;48.652;9.194;2023-06-26T08:31:24;96216.59;;;38.40;24.07
69411;BME280;56604;48.652;9.194;2023-06-26T08:33:49;96220.47;;;39.01;22.66
69411;BME280;56604;48.652;9.194;2023-06-26T08:36:15;96221.41;;;36.38;25.44
69411;BME280;56604;48.652;9.194;2023-06-26T08:38:41;96207.59;;;37.41;25.18
69411;BME280;56604;48.652;9.194;2023-06-26T08:41:07;96216.53;;;38.43;23.46
69411;BME280;56604;48.652;9.194;2023-06-26T08:43:34;96216.72;;;37.87;23.73
69411;BME280;56604;48.652;9.194;2023-06-26T08:46:01;96220.88;;;37.06;25.71
69411;BME280;56604;48.652;9.194;2023-06-26T08:48:29;96215.78;;;37.77;22.79
69411;BME280;56604;48.652;9.194;2023-06-26T08:50:57;96213.41;;;38.58;22.76
69411;BME280;56604;48.652;9.194;2023-06-26T08:53:48;96216.81;;;37.67;23.50
69411;BME280;56604;48.652;9.194;2023-06-26T08:56:17;96208.81;;;38.22;23.97
69411;BME280;56604;48.652;9.194;2023-06-26T08:58:44;96220.09;;;39.41;22.45
69411;BME280;56604;48.652;9.194;2023-06-26T09:01:09;96207.50;;;37.97;23.09
69411;BME280;56604;48.652;9.194;2023-06-26T09:03:36;96209.03;;;38.73;22.69
69411;BME280;56604;48.652;9.194;2023-06-26T09:06:02;96206.56;;;37.35;24.47
69411;BME280;56604;48.652;9.194;2023-06-26T09:08:27;96204.47;;;37.92;24.36
69411;BME280;56604;48.652;9.194;2023-06-26T09:10:52;96212.00;;;38.79;23.12
69411;BME280;56604;48.652;9.194;2023-06-26T09:13:18;96219.28;;;38.27;23.01
69411;BME280;56604;48.652;9.194;2023-06-26T09:15:44;96208.63;;;37.47;23.71
69411;BME280;56604;48.652;9.194;2023-06-26T09:18:11;96197.53;;;37.18;24.21
69411;BME280;56604;48.652;9.194;2023-06-26T09:20:36;96205.19;;;36.00;25.03
69411;BME280;56604;48.652;9.194;2023-06-26T09:23:03;96200.59;;;35.43;26.39
69411;BME280;56604;48.652;9.194;2023-06-26T09:25:29;96203.16;;;35.26;27.59
69411;BME280;56604;48.652;9.194;2023-06-26T09:27:55;96197.53;;;37.18;25.47
69411;BME280;56604;48.652;9.194;2023-06-26T09:30:21;96193.03;;;36.88;25.41
69411;BME280;56604;48.652;9.194;2023-06-26T09:32:47;96196.34;;;36.59;25.54
69411;BME280;56604;48.652;9.194;2023-06-26T09:35:12;96201.16;;;36.08;26.07
69411;BME280;56604;48.652;9.194;2023-06-26T09:37:38;96203.78;;;35.10;26.43
69411;BME280;56604;48.652;9.194;2023-06-26T09:40:04;96204.13;;;36.17;26.27
69411;BME280;56604;48.652;9.194;2023-06-26T09:42:30;96194.31;;;36.63;25.16
69411;BME280;56604;48.652;9.194;2023-06-26T09:44:55;96193.38;;;36.90;25.17
69411;BME280;56604;48.652;9.194;2023-06-26T09:47:21;96188.75;;;37.92;23.82
69411;BME280;56604;48.652;9.194;2023-06-26T09:49:47;96187.31;;;37.19;23.39
69411;BME280;56604;48.652;9.194;2023-06-26T09:52:16;96187.47;;;35.85;25.56
69411;BME280;56604;48.652;9.194;2023-06-26T09:54:45;96186.56;;;35.41;24.88
69411;BME280;56604;48.652;9.194;2023-06-26T09:57:12;96181.69;;;36.02;24.53
69411;BME280;56604;48.652;9.194;2023-06-26T09:59:39;96180.84;;;36.53;24.35
69411;BME280;56604;48.652;9.194;2023-06-26T10:02:05;96182.41;;;36.50;24.28
69411;BME280;56604;48.652;9.194;2023-06-26T10:04:30;96181.66;;;36.89;24.11
69411;BME280;56604;48.652;9.194;2023-06-26T10:06:56;96182.94;;;36.21;23.13
69411;BME280;56604;48.652;9.194;2023-06-26T10:09:23;96177.44;;;35.51;25.28
69411;BME280;56604;48.652;9.194;2023-06-26T10:12:28;96189.97;;;35.75;25.53
69411;BME280;56604;48.652;9.194;2023-06-26T10:14:56;96181.94;;;35.88;24.66
69411;BME280;56604;48.652;9.194;2023-06-26T10:17:22;96185.06;;;36.34;25.06
69411;BME280;56604;48.652;9.194;2023-06-26T10:19:49;96187.03;;;35.86;24.15
69411;BME280;56604;48.652;9.194;2023-06-26T10:22:18;96184.63;;;36.15;24.48
69411;BME280;56604;48.652;9.194;2023-06-26T10:24:47;96184.50;;;35.75;25.36
69411;BME280;56604;48.652;9.194;2023-06-26T10:27:18;96192.59;;;34.67;26.39
69411;BME280;56604;48.652;9.194;2023-06-26T10:29:53;96193.81;;;34.62;26.09
69411;BME280;56604;48.652;9.194;2023-06-26T10:32:20;96189.50;;;34.23;26.70
69411;BME280;56604;48.652;9.194;2023-06-26T10:34:46;96186.53;;;34.83;26.47
69411;BME280;56604;48.652;9.194;2023-06-26T10:37:12;96191.63;;;34.81;26.21
69411;BME280;56604;48.652;9.194;2023-06-26T10:39:47;96190.38;;;34.89;26.00
69411;BME280;56604;48.652;9.194;2023-06-26T10:42:16;96194.53;;;34.66;25.87
69411;BME280;56604;48.652;9.194;2023-06-26T10:44:44;96185.34;;;33.63;27.48
69411;BME280;56604;48.652;9.194;2023-06-26T10:47:11;96191.44;;;33.19;28.49
69411;BME280;56604;48.652;9.194;2023-06-26T10:49:37;96191.09;;;33.17;29.19
69411;BME280;56604;48.652;9.194;2023-06-26T10:52:05;96199.00;;;32.86;28.58
69411;BME280;56604;48.652;9.194;2023-06-26T10:54:32;96204.41;;;33.00;28.79
69411;BME280;56604;48.652;9.194;2023-06-26T10:56:58;96206.78;;;32.87;29.00
69411;BME280;56604;48.652;9.194;2023-06-26T10:59:26;96205.16;;;32.97;28.67
69411;BME280;56604;48.652;9.194;2023-06-26T11:01:58;96205.34;;;32.54;29.99
69411;BME280;56604;48.652;9.194;2023-06-26T11:04:47;96209.09;;;32.89;30.94
69411;BME280;56604;48.652;9.194;2023-06-26T11:07:16;96194.81;;;33.96;29.57
69411;BME280;56604;48.652;9.194;2023-06-26T11:10:00;96202.13;;;33.58;30.98
69411;BME280;56604;48.652;9.194;2023-06-26T11:15:14;96202.59;;;33.46;31.85
69411;BME280;56604;48.652;9.194;2023-06-26T11:17:42;96203.63;;;32.92;32.24
69411;BME280;56604;48.652;9.194;2023-06-26T11:20:09;96200.13;;;32.99;32.17
69411;BME280;56604;48.652;9.194;2023-06-26T11:22:37;96201.72;;;32.79;32.21
69411;BME280;56604;48.652;9.194;2023-06-26T11:25:03;96204.44;;;32.86;31.76
69411;BME280;56604;48.652;9.194;2023-06-26T11:30:07;96203.97;;;33.72;30.24
69411;BME280;56604;48.652;9.194;2023-06-26T11:32:33;96213.84;;;34.03;30.68
69411;BME280;56604;48.652;9.194;2023-06-26T11:34:59;96218.81;;;33.71;30.38
69411;BME280;56604;48.652;9.194;2023-06-26T11:37:25;96214.81;;;33.83;30.39
69411;BME280;56604;48.652;9.194;2023-06-26T11:39:50;96219.41;;;33.93;30.32
69411;BME280;56604;48.652;9.194;2023-06-26T11:42:17;96228.03;;;33.84;31.05
69411;BME280;56604;48.652;9.194;2023-06-26T11:44:43;96217.38;;;33.48;30.53
69411;BME280;56604;48.652;9.194;2023-06-26T11:47:13;96225.09;;;33.61;30.97
69411;BME280;56604;48.652;9.194;2023-06-26T11:49:42;96212.66;;;33.59;30.91
69411;BME280;56604;48.652;9.194;2023-06-26T11:52:07;96217.22;;;33.70;30.83
69411;BME280;56604;48.652;9.194;2023-06-26T11:54:33;96220.06;;;33.55;31.15
69411;BME280;56604;48.652;9.194;2023-06-26T11:56:59;96222.78;;;33.55;31.08
69411;BME280;56604;48.652;9.194;2023-06-26T11:59:33;96225.22;;;33.35;30.72
69411;BME280;56604;48.652;9.194;2023-06-26T12:01:58;96227.72;;;33.08;30.85
69411;BME280;56604;48.652;9.194;2023-06-26T12:04:24;96224.78;;;32.49;31.49
69411;BME280;56604;48.652;9.194;2023-06-26T12:06:52;96222.47;;;32.30;31.82
69411;BME280;56604;48.652;9.194;2023-06-26T12:09:22;96232.56;;;32.40;31.82
69411;BME280;56604;48.652;9.194;2023-06-26T12:11:48;96228.31;;;32.07;33.08
69411;BME280;56604;48.652;9.194;2023-06-26T12:14:17;96238.72;;;32.73;32.69
69411;BME280;56604;48.652;9.194;2023-06-26T12:16:43;96231.72;;;32.72;31.99
69411;BME280;56604;48.652;9.194;2023-06-26T12:19:08;96222.38;;;32.73;32.85
69411;BME280;56604;48.652;9.194;2023-06-26T12:24:02;96248.09;;;32.43;33.42
69411;BME280;56604;48.652;9.194;2023-06-26T12:26:28;96230.19;;;32.63;33.90
69411;BME280;56604;48.652;9.194;2023-06-26T12:29:02;96238.03;;;32.22;33.23
69411;BME280;56604;48.652;9.194;2023-06-26T12:31:27;96236.47;;;32.17;33.37
69411;BME280;56604;48.652;9.194;2023-06-26T12:33:53;96233.38;;;32.01;34.62
69411;BME280;56604;48.652;9.194;2023-06-26T12:36:18;96234.13;;;32.26;34.46
69411;BME280;56604;48.652;9.194;2023-06-26T12:38:45;96229.44;;;32.52;34.79
69411;BME280;56604;48.652;9.194;2023-06-26T12:41:12;96224.28;;;32.83;34.59
69411;BME280;56604;48.652;9.194;2023-06-26T12:43:39;96230.78;;;33.18;34.04
69411;BME280;56604;48.652;9.194;2023-06-26T12:46:05;96227.75;;;33.01;32.90
69411;BME280;56604;48.652;9.194;2023-06-26T12:48:38;96226.72;;;32.48;34.62
69411;BME280;56604;48.652;9.194;2023-06-26T12:51:10;96218.91;;;32.65;34.67
69411;BME280;56604;48.652;9.194;2023-06-26T12:53:36;96220.13;;;32.21;34.54
69411;BME280;56604;48.652;9.194;2023-06-26T12:56:02;96212.31;;;32.55;34.97
69411;BME280;56604;48.652;9.194;2023-06-26T12:58:27;96220.53;;;32.48;35.08
69411;BME280;56604;48.652;9.194;2023-06-26T13:00:53;96219.31;;;32.60;34.70
69411;BME280;56604;48.652;9.194;2023-06-26T13:03:19;96218.53;;;32.41;35.09
69411;BME280;56604;48.652;9.194;2023-06-26T13:05:46;96217.78;;;32.30;34.90